Coral Ruby — 3ERR6 — position and weather

sailwx.info

Track history (hours):
 
Tides and Currents Weather Stations Pressure Air Temp Water Temp Dewpoint Dewpoint Depression Visibility Wind Speed Wind Dir Waves Ship Positions

Coral Ruby

Last reported at 2015-Aug-17 01:30 UTC. Time now 2015-Aug-31 13:22 UTC.
Position S 27°08' E 153°53'.
Warning: this ship's position is 14 days out of date.

Length 225 m; draft 11.8 m.

Type: Ship. MMSI: 370150000.

Date/timePositionNaut miles runAvg speedWind from/ knotsBaromVisibWave heightAir tempDewpointWater temp
2015-Aug-17 01:30S 27°08' E 153°53'1413.7
2015-Aug-17 00:27S 27°23' E 153°53'1313.6
2015-Aug-16 23:31S 27°35' E 153°52'1413.6
2015-Aug-16 22:29S 27°50' E 153°52'27812.5
2015-Aug-16 00:15S 32°22' E 152°44'912.5
2015-Aug-15 23:33S 32°30' E 152°41'1313.0
2015-Aug-15 22:33S 32°40' E 152°31'1413.7
2015-Aug-15 21:34S 32°50' E 152°20'1313.4
2015-Aug-15 20:33S 32°56' E 152°06'1312.8
2015-Aug-15 19:34S 32°56' E 151°51'4 4.3
2015-Aug-15 18:33S 32°54' E 151°46'0 0.0
2015-Aug-15 17:33S 32°54' E 151°46'0 0.0
2015-Aug-15 16:33S 32°54' E 151°46'0 0.0
2015-Aug-15 15:33S 32°54' E 151°46'0 0.0
2015-Aug-15 14:33S 32°54' E 151°46'0 0.1
2015-Aug-15 13:33S 32°54' E 151°46'0 0.1
2015-Aug-15 12:33S 32°54' E 151°46'0 0.0
2015-Aug-15 11:33S 32°54' E 151°46'0 0.0
2015-Aug-15 10:33S 32°54' E 151°46'0 0.1
2015-Aug-15 09:33S 32°54' E 151°46'0 0.1
2015-Aug-15 08:33S 32°54' E 151°46'0 0.0
2015-Aug-15 07:33S 32°54' E 151°46'0 0.0
2015-Aug-15 06:33S 32°54' E 151°46'0 0.0
2015-Aug-15 05:33S 32°54' E 151°46'0 0.0
2015-Aug-15 04:33S 32°54' E 151°46'0 0.0
2015-Aug-15 03:33S 32°54' E 151°46'0 0.0
2015-Aug-15 02:30S 32°54' E 151°46'0 0.0
2015-Aug-15 01:33S 32°54' E 151°46'0 0.0
2015-Aug-15 00:33S 32°54' E 151°46'0 0.0
2015-Aug-14 23:33S 32°54' E 151°46'0 0.0
2015-Aug-14 22:33S 32°54' E 151°46'0 0.0
2015-Aug-14 21:33S 32°54' E 151°46'0 0.0
2015-Aug-14 20:33S 32°54' E 151°46'0 0.0
2015-Aug-14 19:33S 32°54' E 151°46'0 0.0
2015-Aug-14 18:33S 32°54' E 151°46'0 0.0
2015-Aug-14 17:33S 32°54' E 151°46'0 0.0
2015-Aug-14 16:33S 32°54' E 151°46'0 0.0
2015-Aug-14 15:33S 32°54' E 151°46'0 0.0
2015-Aug-14 14:33S 32°54' E 151°46'0 0.0
2015-Aug-14 13:33S 32°54' E 151°46'0 0.0
2015-Aug-14 12:33S 32°54' E 151°46'0 0.0
2015-Aug-14 11:24S 32°54' E 151°46'0 0.1
2015-Aug-14 10:30S 32°54' E 151°46'0 0.0
2015-Aug-14 09:30S 32°54' E 151°46'0 0.1
2015-Aug-14 08:33S 32°54' E 151°46'0 0.0
2015-Aug-14 07:24S 32°54' E 151°46'0 0.2
2015-Aug-14 06:33S 32°54' E 151°46'6 5.6
2015-Aug-14 05:33S 32°58' E 151°51'5 5.2
2015-Aug-14 04:33S 33°03' E 151°52'7 7.4
2015-Aug-14 03:33S 33°10' E 151°51'  
2015-Aug-11 23:28S 33°14' E 151°42'1 0.5
2015-Aug-11 21:19S 33°14' E 151°43'8 9.8
2015-Aug-11 20:32S 33°08' E 151°49'1111.4
2015-Aug-11 19:33S 33°00' E 151°58'9 9.4
2015-Aug-11 18:33S 32°56' E 152°08'1010.3
2015-Aug-11 17:33S 32°50' E 152°19'1313.4
2015-Aug-11 16:33S 32°41' E 152°30'1413.9
2015-Aug-11 15:32S 32°30' E 152°40'1413.8
2015-Aug-11 14:30S 32°17' E 152°48'1314.1
2015-Aug-11 13:33S 32°05' E 152°53'22214.5
2015-Aug-10 22:13S 28°28' E 153°46'1014.6
2015-Aug-10 21:33S 28°18' E 153°46'1413.6
2015-Aug-10 20:33S 28°04' E 153°50'1413.5
2015-Aug-10 19:32S 27°51' E 153°52'1513.8
2015-Aug-10 18:27S 27°36' E 153°52'1313.6
2015-Aug-10 17:30S 27°23' E 153°53'1513.2
2015-Aug-10 16:21S 27°08' E 153°55'  
Track history (hours):
 
Tides and Currents Weather Stations Pressure Air Temp Water Temp Dewpoint Dewpoint Depression Visibility Wind Speed Wind Dir Waves Ship Positions

Coral Ruby

Last reported at 2015-Aug-17 01:30 UTC. Time now 2015-Aug-31 13:22 UTC.
Position S 27°08' E 153°53'.
Warning: this ship's position is 14 days out of date.

Length 225 m; draft 11.8 m.

Type: Ship. MMSI: 370150000.

Date/timePositionNaut miles runAvg speedWind from/ knotsBaromVisibWave heightAir tempDewpointWater temp
2015-Aug-17 01:30S 27°08' E 153°53'1413.7
2015-Aug-17 00:27S 27°23' E 153°53'1313.6
2015-Aug-16 23:31S 27°35' E 153°52'1413.6
2015-Aug-16 22:29S 27°50' E 153°52'27812.5
2015-Aug-16 00:15S 32°22' E 152°44'912.5
2015-Aug-15 23:33S 32°30' E 152°41'1313.0
2015-Aug-15 22:33S 32°40' E 152°31'1413.7
2015-Aug-15 21:34S 32°50' E 152°20'1313.4
2015-Aug-15 20:33S 32°56' E 152°06'1312.8
2015-Aug-15 19:34S 32°56' E 151°51'4 4.3
2015-Aug-15 18:33S 32°54' E 151°46'0 0.0
2015-Aug-15 17:33S 32°54' E 151°46'0 0.0
2015-Aug-15 16:33S 32°54' E 151°46'0 0.0
2015-Aug-15 15:33S 32°54' E 151°46'0 0.0
2015-Aug-15 14:33S 32°54' E 151°46'0 0.1
2015-Aug-15 13:33S 32°54' E 151°46'0 0.1
2015-Aug-15 12:33S 32°54' E 151°46'0 0.0
2015-Aug-15 11:33S 32°54' E 151°46'0 0.0
2015-Aug-15 10:33S 32°54' E 151°46'0 0.1
2015-Aug-15 09:33S 32°54' E 151°46'0 0.1
2015-Aug-15 08:33S 32°54' E 151°46'0 0.0
2015-Aug-15 07:33S 32°54' E 151°46'0 0.0
2015-Aug-15 06:33S 32°54' E 151°46'0 0.0
2015-Aug-15 05:33S 32°54' E 151°46'0 0.0
2015-Aug-15 04:33S 32°54' E 151°46'0 0.0
2015-Aug-15 03:33S 32°54' E 151°46'0 0.0
2015-Aug-15 02:30S 32°54' E 151°46'0 0.0
2015-Aug-15 01:33S 32°54' E 151°46'0 0.0
2015-Aug-15 00:33S 32°54' E 151°46'0 0.0
2015-Aug-14 23:33S 32°54' E 151°46'0 0.0
2015-Aug-14 22:33S 32°54' E 151°46'0 0.0
2015-Aug-14 21:33S 32°54' E 151°46'0 0.0
2015-Aug-14 20:33S 32°54' E 151°46'0 0.0
2015-Aug-14 19:33S 32°54' E 151°46'0 0.0
2015-Aug-14 18:33S 32°54' E 151°46'0 0.0
2015-Aug-14 17:33S 32°54' E 151°46'0 0.0
2015-Aug-14 16:33S 32°54' E 151°46'0 0.0
2015-Aug-14 15:33S 32°54' E 151°46'0 0.0
2015-Aug-14 14:33S 32°54' E 151°46'0 0.0
2015-Aug-14 13:33S 32°54' E 151°46'0 0.0
2015-Aug-14 12:33S 32°54' E 151°46'0 0.0
2015-Aug-14 11:24S 32°54' E 151°46'0 0.1
2015-Aug-14 10:30S 32°54' E 151°46'0 0.0
2015-Aug-14 09:30S 32°54' E 151°46'0 0.1
2015-Aug-14 08:33S 32°54' E 151°46'0 0.0
2015-Aug-14 07:24S 32°54' E 151°46'0 0.2
2015-Aug-14 06:33S 32°54' E 151°46'6 5.6
2015-Aug-14 05:33S 32°58' E 151°51'5 5.2
2015-Aug-14 04:33S 33°03' E 151°52'7 7.4
2015-Aug-14 03:33S 33°10' E 151°51'  
2015-Aug-11 23:28S 33°14' E 151°42'1 0.5
2015-Aug-11 21:19S 33°14' E 151°43'8 9.8
2015-Aug-11 20:32S 33°08' E 151°49'1111.4
2015-Aug-11 19:33S 33°00' E 151°58'9 9.4
2015-Aug-11 18:33S 32°56' E 152°08'1010.3
2015-Aug-11 17:33S 32°50' E 152°19'1313.4
2015-Aug-11 16:33S 32°41' E 152°30'1413.9
2015-Aug-11 15:32S 32°30' E 152°40'1413.8
2015-Aug-11 14:30S 32°17' E 152°48'1314.1
2015-Aug-11 13:33S 32°05' E 152°53'22214.5
2015-Aug-10 22:13S 28°28' E 153°46'1014.6
2015-Aug-10 21:33S 28°18' E 153°46'1413.6
2015-Aug-10 20:33S 28°04' E 153°50'1413.5
2015-Aug-10 19:32S 27°51' E 153°52'1513.8
2015-Aug-10 18:27S 27°36' E 153°52'1313.6
2015-Aug-10 17:30S 27°23' E 153°53'1513.2
2015-Aug-10 16:21S 27°08' E 153°55'  

Dump ship's entire track history